Tiempo atmosférico en la estación meteorológica de Burgo de Osma, Soria (932 m.)



Fecha
DESCASC
Temp. máxima en grados centígrados (hora)
DESCASC
Temp. mínima en grados centígrados (hora)
DESCASC
Temp. media en grados centígrados
DESCASC
Racha de viento máxima en m/sg (hora)
DESCASC
Velocidad máxima media en intervalos de 10 minutos(hora)
DESCASC
Precipitaciones diarias en mm
DESCASC
Precipitaciones de 00:00 a 06:00 en mm
DESCASC
Precipitaciones de 06:00 a 12:00 en mm
DESCASC
Precipitaciones de 12:00 a 18:00 en mm
DESCASC
Precipitaciones de 18:00 a 24:00 en mm
DESCASC
20-05-2018 22.2 (15:20) 6.3 (06:30) 14.3 13.33 (15:30) 8.33 (15:50) 0 0 0 0 0
19-05-2018 22.8 (15:40) 4.4 (06:50) 13.6 14.44 (23:40) 10.56 (23:40) 0.8 0 0 0 0.8
18-05-2018 21.6 (15:00) 6.2 (00:00) 13.9 10.28 (15:30) 7.22 (15:30) 9.2 0 0 8.8 0.4
17-05-2018 21.5 (17:10) 6.5 (00:00) 14 10.28 (18:20) 6.39 (18:20) 0 0 0 0 0
16-05-2018 23.2 (19:00) 1.5 (00:00) 12.4 8.89 (21:00) 6.39 (20:30) 0 0 0 0 0
15-05-2018 22.2 (16:00) -0.5 (-00:0) 10.9 10 (18:50) 7.22 (18:50) 0 0 0 0 0
14-05-2018 16.4 (18:30) 4.6 (00:00) 10.5 11.11 (16:10) 7.22 (15:20) 0 0 0 0 0
13-05-2018 12.8 (17:00) -0.7 (-00:0) 6.1 13.61 (15:50) 8.61 (16:00) 0 0 0 0 0
12-05-2018 15 (16:50) 4.5 (00:00) 9.8 14.17 (14:40) 10 (15:10) 0 0 0 0 0
11-05-2018 23.7 (16:10) 3.5 (07:10) 13.6 18.33 (18:50) 11.67 (18:50) 2.4 0 0 0 2.4
10-05-2018 22.5 (19:30) 9.9 (00:00) 16.2 6.67 (15:10) 3.89 (17:10) 0 0 0 0 0
09-05-2018 21.3 (17:30) 3.2 (00:00) 12.2 11.67 (16:50) 7.78 (15:00) 0 0 0 0 0
08-05-2018 23.8 (17:50) 7 (00:00) 15.4 9.17 (19:50) 6.94 (20:00) 0 0 0 0 0
07-05-2018 23.2 (13:20) 8.9 (00:00) 16.1 11.11 (16:40) 6.67 (16:50) 0.4 0 0 0 0.4
06-05-2018 23.6 (18:00) 8.8 (00:00) 16.2 8.61 (13:50) 5.83 (13:50) 0 0 0 0 0
05-05-2018 22.1 (16:30) 0.4 (00:00) 11.3 8.61 (22:10) 6.39 (22:10) 0 0 0 0 0
04-05-2018 18.5 (16:20) -0.1 (00:00) 9.2 9.17 (13:10) 6.11 (13:10) 0 0 0 0 0
03-05-2018 16.1 (15:50) 3.7 (00:00) 9.9 11.94 (11:00) 8.61 (11:00) 0 0 0 0 0
02-05-2018 15.1 (16:10) -0.7 (-00:0) 7.2 12.5 (13:10) 8.89 (13:20) 0 0 0 0 0
01-05-2018 12.9 (17:20) -1.9 (07:50) 5.5 10 (19:20) 6.94 (19:20) 0.2 0 0.2 0 0
30-04-2018 9.2 (15:10) 1.2 (00:00) 5.2 13.33 (16:00) 9.44 (16:00) 0.6 0 0 0.4 0.2
29-04-2018 9.3 (17:50) 3.7 (00:00) 6.5 16.67 (18:40) 11.39 (18:50) 4.4 0.6 1.4 2 0.4
28-04-2018 17.5 (15:40) 6.2 (00:00) 11.8 12.78 (14:10) 8.06 (14:10) 0 0 0 0 0
27-04-2018 19.8 (18:00) 7.5 (00:00) 13.6 10.56 (16:30) 6.67 (16:20) 0 0 0 0 0
26-04-2018 23.8 (17:50) 5.5 (00:00) 14.6 8.89 (19:00) 6.11 (19:00) 0 0 0 0 0
25-04-2018 27.3 (17:40) 6.4 (00:00) 16.8 8.89 (22:20) 5.56 (22:20) 0 0 0 0 0
24-04-2018 26.2 (17:10) 8.4 (00:00) 17.3 8.61 (12:40) 6.39 (12:40) 0 0 0 0 0
23-04-2018 24.6 (16:00) 8.5 (00:00) 16.6 8.61 (17:20) 6.67 (19:20) 0 0 0 0 0
22-04-2018 23.4 (16:00) 5.6 (00:00) 14.5 8.89 (17:10) 5.28 (17:10) 0 0 0 0 0

Gráficas

Temp. máximas Temp. mínimas Temp. medias Precipitaciones Rachas de viento máximas Velocidades máximas media en intervalos de 10 minutos

Datos horarios

Fecha y hora oficial Temperatura (ºC) Velocidad del viento (km/h) Dirección del viento Racha (km/h) Dirección de racha Precipitación (mm) Presión (hPa) Tendencia (hPa) Humedad (%)
2018-05-21 23:00:00 12.1 7 Nordeste 13 Nordeste 0 -- -- 83
2018-05-21 22:00:00 13.7 9 Nordeste 12 Nordeste 0 -- -- 74
2018-05-21 21:00:00 16.7 6 Nordeste 9 Nordeste 0 -- -- 61
2018-05-21 20:00:00 15.6 3 Nordeste 22 Nordeste 0 -- -- 67
2018-05-21 19:00:00 18.2 13 Nordeste 22 Este 0 -- -- 60
2018-05-21 18:00:00 17.1 9 Norte 22 Oeste 0 -- -- 60
2018-05-21 17:00:00 18.9 18 Oeste 33 Sudoeste 0 -- -- 49
2018-05-21 16:00:00 18.8 12 Sudoeste 18 Sudoeste 0 -- -- 52
2018-05-21 15:00:00 16.7 5 Sur 23 Oeste 1 -- -- 65
2018-05-21 14:00:00 15.4 5 Sudeste 32 Sur 2.8 -- -- 71
2018-05-21 13:00:00 19.2 11 Sudoeste 23 Oeste 0 -- -- 54
2018-05-21 12:00:00 19.3 5 Sur 13 Este 0 -- -- 53
2018-05-21 11:00:00 17.6 5 Nordeste 10 Nordeste 0 -- -- 59
2018-05-21 10:00:00 15.3 2 Nordeste 8 Este 0 -- -- 67
2018-05-21 09:00:00 13.3 5 Este 10 Este 0 -- -- 79
2018-05-21 08:00:00 9.9 3 Nordeste 6 Nordeste 0 -- -- 93
2018-05-21 07:00:00 8.8 4 Nordeste 5 Nordeste 0 -- -- 91
2018-05-21 06:00:00 9.9 5 Nordeste 9 Este 0 -- -- 89
2018-05-21 05:00:00 11 7 Este 12 Este 0 -- -- 86
2018-05-21 04:00:00 11.4 10 Este 14 Este 0 -- -- 87
2018-05-21 03:00:00 11.1 5 Este 9 Este 0 -- -- 87
2018-05-21 02:00:00 11.4 4 Este 7 Nordeste 0 -- -- 85
2018-05-21 01:00:00 10.8 4 Nordeste 10 Este 0 -- -- 83
2018-05-21 00:00:00 12.5 7 Nordeste 12 Nordeste 0 -- -- 76
2018-05-20 23:00:00 13.8 3 Este 12 Nordeste 0 -- -- 71
2018-05-20 22:00:00 14.3 4 Este 12 Este 0 -- -- 67
2018-05-20 21:00:00 16.3 8 Este 13 Este 0 -- -- 60
2018-05-20 20:00:00 17.2 9 Este 15 Sudeste 0 -- -- 55
2018-05-20 19:00:00 17.6 10 Sudeste 21 Sudeste 0 -- -- 51
2018-05-20 18:00:00 17 12 Sudeste 36 Sudeste 0 -- -- 53
2018-05-20 17:00:00 17.3 23 Sudeste 38 Sudeste 0 -- -- 54
2018-05-20 16:00:00 17.6 27 Sudeste 48 Sudeste 0 -- -- 56
2018-05-20 15:00:00 20.4 11 Este 23 Este 0 -- -- 36
2018-05-20 14:00:00 20.5 7 Sudeste 19 Este 0 -- -- 40
2018-05-20 13:00:00 19.8 6 Este 17 Este 0 -- -- 45
2018-05-20 12:00:00 18.1 6 Este 17 Este 0 -- -- 47
2018-05-20 11:00:00 15.7 12 Este 23 Este 0 -- -- 55
2018-05-20 10:00:00 14.1 15 Este 22 Este 0 -- -- 63
2018-05-20 09:00:00 12.3 4 Este 7 Este 0 -- -- 81
2018-05-20 08:00:00 8.3 4 Nordeste 7 Nordeste 0 -- -- 96
2018-05-20 07:00:00 6.4 5 Nordeste 8 Nordeste 0 -- -- 97
2018-05-20 06:00:00 6.9 2 Este 5 Este 0 -- -- 96
2018-05-20 05:00:00 7.7 3 Este 7 Nordeste 0 -- -- 94
2018-05-20 04:00:00 8.5 3 Este 4 Sudeste 0 -- -- 93
2018-05-20 03:00:00 9.3 2 Este 5 Nordeste 0 -- -- 90
2018-05-20 02:00:00 9.6 3 Sudeste 10 Nordeste 0 -- -- 89
2018-05-20 01:00:00 10.6 10 Nordeste 37 Sudeste 0 -- -- 83
2018-05-20 00:00:00 11.4 25 Sudeste 52 Sudeste 0.6 -- -- 80
2018-05-19 23:00:00 12.8 9 Norte 20 Este 0 -- -- 74
2018-05-19 22:00:00 13.3 10 Nordeste 22 Este 0 -- -- 77
2018-05-19 21:00:00 15.5 26 Este 42 Este 0 -- -- 60
2018-05-19 20:00:00 18.3 22 Sudeste 37 Nordeste 0.2 -- -- 49
2018-05-19 19:00:00 19.1 18 Nordeste 29 Norte 0 -- -- 43
2018-05-19 18:00:00 21 3 Norte 22 Nordeste 0 -- -- 36
2018-05-19 17:00:00 19.4 15 Nordeste 34 Nordeste 0 -- -- 44
2018-05-19 16:00:00 21.1 12 Este 20 Este 0 -- -- 37
2018-05-19 15:00:00 21.4 12 Oeste 21 Norte 0 -- -- 41
2018-05-19 14:00:00 20.4 8 Sudoeste 21 Norte 0 -- -- 42
2018-05-19 13:00:00 19.4 6 Norte 18 Noroeste 0 -- -- 48
2018-05-19 12:00:00 19.3 6 Norte 18 Este 0 -- -- 50
2018-05-19 11:00:00 17 7 Este 15 Este 0 -- -- 64
2018-05-19 10:00:00 14.2 8 Este 11 Este 0 -- -- 76
2018-05-19 09:00:00 9.5 6 Este 8 Este 0 -- -- 93
2018-05-19 08:00:00 6.5 2 Nordeste 6 Este 0 -- -- 96
2018-05-19 07:00:00 4.4 2 Este 5 Este 0 -- -- 97
2018-05-19 06:00:00 4.9 2 Nordeste 4 Este 0 -- -- 96
2018-05-19 05:00:00 5.4 3 Este 5 Este 0 -- -- 95
2018-05-19 04:00:00 6.2 4 Este 5 Sudeste 0 -- -- 95
2018-05-19 03:00:00 7.8 2 Nordeste 5 Nordeste 0 -- -- 94
2018-05-19 02:00:00 8.8 3 Este 5 Este 0 -- -- 91
2018-05-19 01:00:00 10 0 Calma 9 Este 0 -- -- 90
2018-05-19 00:00:00 11.1 7 Este 13 Este 0 -- -- 85
2018-05-18 23:00:00 12.4 10 Este 15 Este 0 -- -- 78
2018-05-18 22:00:00 12.8 10 Este 29 Este 0 -- -- 79
2018-05-18 21:00:00 15.1 15 Este 21 Este 0 -- -- 69
2018-05-18 20:00:00 17.7 13 Este 22 Este 0.2 -- -- 60
2018-05-18 19:00:00 17.2 6 Nordeste 10 Este 0.2 -- -- 70
2018-05-18 18:00:00 14.3 7 Noroeste 18 Sudoeste 0 -- -- 79
2018-05-18 17:00:00 14.2 13 Sudoeste 24 Noroeste 0 -- -- 83
2018-05-18 16:00:00 13.1 18 Noroeste 37 Nordeste 8.8 -- -- 70
2018-05-18 15:00:00 21.6 14 Sur 28 Sudeste 0 -- -- 42
2018-05-18 14:00:00 19.8 14 Sudeste 26 Sudeste 0 -- -- 48
2018-05-18 13:00:00 18.6 11 Este 21 Este 0 -- -- 48
2018-05-18 12:00:00 17.7 13 Este 25 Este 0 -- -- 55
2018-05-18 11:00:00 17 13 Este 23 Este 0 -- -- 57
2018-05-18 10:00:00 13.2 7 Este 10 Este 0 -- -- 74
2018-05-18 09:00:00 8.6 2 Noroeste 12 Este 0 -- -- 87
2018-05-18 08:00:00 7.6 9 Este 20 Este 0 -- -- 89
2018-05-18 07:00:00 6.2 3 Nordeste 11 Este 0 -- -- 92
2018-05-18 06:00:00 7 11 Este 19 Este 0 -- -- 91
2018-05-18 05:00:00 6.5 7 Este 11 Nordeste 0 -- -- 92
2018-05-18 04:00:00 7.4 4 Este 9 Nordeste 0 -- -- 92
2018-05-18 03:00:00 8.2 0 Calma 8 Oeste 0 -- -- 93
2018-05-18 02:00:00 8.1 3 Noroeste 15 Oeste 0 -- -- 91
2018-05-18 01:00:00 9.4 9 Sudoeste 20 Oeste 0 -- -- 88
2018-05-18 00:00:00 11.2 10 Oeste 15 Oeste 0 -- -- 74
2018-05-17 23:00:00 12 3 Noroeste 16 Este 0 -- -- 67
2018-05-17 22:00:00 13.8 9 Este 24 Sudeste 0 -- -- 64
2018-05-17 21:00:00 15.8 15 Sudeste 33 Este 0 -- -- 53
2018-05-17 20:00:00 17.1 15 Este 29 Nordeste 0 -- -- 47
2018-05-17 19:00:00 18.7 13 Nordeste 37 Este 0 -- -- 43
2018-05-17 18:00:00 20.4 4 Este 14 Este 0 -- -- 35
2018-05-17 17:00:00 20.8 4 Este 13 Noroeste 0 -- -- 38
2018-05-17 16:00:00 18.2 12 Noroeste 21 Oeste 0 -- -- 48
2018-05-17 15:00:00 18.2 9 Oeste 23 Oeste 0 -- -- 46
2018-05-17 14:00:00 15.6 14 Oeste 22 Oeste 0 -- -- 57
2018-05-17 13:00:00 16.7 18 Oeste 26 Oeste 0 -- -- 53
2018-05-17 12:00:00 17.7 6 Noroeste 13 Noroeste 0 -- -- 50
2018-05-17 11:00:00 15 6 Nordeste 12 Este 0 -- -- 60
2018-05-17 10:00:00 13.4 9 Este 14 Este 0 -- -- 65
2018-05-17 09:00:00 11.9 9 Este 15 Este 0 -- -- 72
2018-05-17 08:00:00 10.6 8 Este 12 Este 0 -- -- 75
2018-05-17 07:00:00 7.4 2 Este 8 Este 0 -- -- 84
2018-05-17 06:00:00 6.8 3 Nordeste 10 Nordeste 0 -- -- 88
2018-05-17 05:00:00 7.3 4 Sudeste 13 Sudeste 0 -- -- 85
2018-05-17 04:00:00 7.7 5 Este 9 Este 0 -- -- 86
2018-05-17 03:00:00 8.9 9 Este 13 Este 0 -- -- 81
2018-05-17 02:00:00 9.8 3 Sudeste 12 Este 0 -- -- 77
2018-05-17 01:00:00 10.6 7 Este 11 Este 0 -- -- 74
2018-05-17 00:00:00 12.2 4 Este 17 Este 0 -- -- 68
2018-05-16 23:00:00 14 12 Este 21 Este 0 -- -- 61
2018-05-16 22:00:00 15.9 14 Este 27 Este 0 -- -- 54
2018-05-16 21:00:00 19 21 Este 32 Este 0 -- -- 44
2018-05-16 20:00:00 21.9 17 Este 26 Este 0 -- -- 31
2018-05-16 19:00:00 23.2 13 Este 22 Este 0 -- -- 28
2018-05-16 18:00:00 21.4 4 Sudeste 24 Este 0 -- -- 31
2018-05-16 17:00:00 21.2 11 Este 22 Este 0 -- -- 34
2018-05-16 16:00:00 20.8 10 Este 28 Este 0 -- -- 37
2018-05-16 15:00:00 20.6 11 Nordeste 23 Este 0 -- -- 37
2018-05-16 14:00:00 21.5 10 Este 19 Este 0 -- -- 36
2018-05-16 13:00:00 19.5 12 Sudeste 24 Este 0 -- -- 40
2018-05-16 12:00:00 17.6 12 Este 21 Este 0 -- -- 45
2018-05-16 11:00:00 15.2 5 Este 15 Este 0 -- -- 52
2018-05-16 10:00:00 12.2 6 Este 12 Este 0 -- -- 61
2018-05-16 09:00:00 7 4 Este 6 Este 0 -- -- 80
2018-05-16 08:00:00 2.9 3 Este 6 Este 0 -- -- 92
2018-05-16 07:00:00 1.7 5 Nordeste 7 Este 0 -- -- 94
2018-05-16 06:00:00 2 2 Nordeste 8 Este 0 -- -- 93
2018-05-16 05:00:00 2.6 4 Nordeste 7 Nordeste 0 -- -- 93
2018-05-16 04:00:00 2.9 3 Este 7 Este 0 -- -- 91
2018-05-16 03:00:00 3.6 3 Sudeste 4 Sudeste 0 -- -- 89
2018-05-16 02:00:00 5.1 0 Calma 6 Sudeste 0 -- -- 86
2018-05-16 01:00:00 8.2 2 Sur 6 Noroeste 0 -- -- 75
2018-05-16 00:00:00 8.6 2 Nordeste 15 Este 0 -- -- 71
2018-05-15 23:00:00 10.4 7 Este 14 Este 0 -- -- 66
2018-05-15 22:00:00 12.3 11 Este 16 Este 0 -- -- 59
2018-05-15 21:00:00 15.8 13 Este 31 Este 0 -- -- 48
2018-05-15 20:00:00 18.1 21 Este 33 Este 0 -- -- 39
2018-05-15 19:00:00 18.3 21 Este 36 Este 0 -- -- 41
2018-05-15 18:00:00 19 18 Este 29 Este 0 -- -- 40
2018-05-15 17:00:00 19.8 7 Nordeste 19 Este 0 -- -- 36
2018-05-15 16:00:00 22.2 6 Nordeste 21 Este 0 -- -- 33
2018-05-15 15:00:00 19.1 8 Noroeste 21 Norte 0 -- -- 36
2018-05-15 14:00:00 17.4 7 Noroeste 23 Sudoeste 0 -- -- 38
2018-05-15 13:00:00 15.4 8 Sudoeste 21 Oeste 0 -- -- 38
2018-05-15 12:00:00 12.9 10 Oeste 19 Sudoeste 0 -- -- 43
2018-05-15 11:00:00 10.9 10 Oeste 17 Oeste 0 -- -- 48
2018-05-15 10:00:00 8.3 6 Sudoeste 12 Sudoeste 0 -- -- 54
2018-05-15 09:00:00 5.1 8 Oeste 17 Oeste 0 -- -- 66
2018-05-15 08:00:00 3.2 5 Oeste 10 Oeste 0 -- -- 79
2018-05-15 07:00:00 -0.2 2 Noroeste 5 Sudeste 0 -- -- 92
2018-05-15 06:00:00 0.5 3 Este 5 Este 0 -- -- 88
2018-05-15 05:00:00 0.5 0 Calma 5 Sudeste 0 -- -- 89
2018-05-15 04:00:00 0.8 0 Calma 6 Este 0 -- -- 89
2018-05-15 03:00:00 1 0 Calma 4 Sudeste 0 -- -- 88
2018-05-15 02:00:00 4 3 Sudoeste 8 Oeste 0 -- -- 81
2018-05-15 01:00:00 4.4 0 Calma 6 Noroeste 0 -- -- 75
2018-05-15 00:00:00 5.8 6 Noroeste 8 Noroeste 0 -- -- 70
2018-05-14 23:00:00 7.8 2 Sur 23 Norte 0 -- -- 62
2018-05-14 22:00:00 9.7 15 Norte 24 Noroeste 0 -- -- 55
2018-05-14 21:00:00 12.4 22 Noroeste 34 Noroeste 0 -- -- 48
2018-05-14 20:00:00 15 21 Noroeste 29 Noroeste 0 -- -- 35
2018-05-14 19:00:00 15.8 21 Noroeste 30 Noroeste 0 -- -- 33
2018-05-14 18:00:00 15.4 19 Noroeste 35 Noroeste 0 -- -- 34
2018-05-14 17:00:00 15.2 18 Noroeste 40 Noroeste 0 -- -- 36
2018-05-14 16:00:00 14.7 15 Noroeste 37 Noroeste 0 -- -- 38
2018-05-14 15:00:00 14.1 22 Noroeste 40 Noroeste 0 -- -- 37
2018-05-14 14:00:00 13.2 20 Norte 35 Noroeste 0 -- -- 42
2018-05-14 13:00:00 11.4 22 Noroeste 36 Oeste 0 -- -- 59
2018-05-14 12:00:00 10.5 14 Noroeste 29 Noroeste 0 -- -- 65
2018-05-14 11:00:00 8.8 12 Noroeste 27 Oeste 0 -- -- 73
2018-05-14 10:00:00 8 14 Oeste 24 Oeste 0 -- -- 76
2018-05-14 09:00:00 6.9 11 Oeste 23 Oeste 0 -- -- 81
2018-05-14 08:00:00 5.6 12 Oeste 16 Oeste 0 -- -- 85
2018-05-14 07:00:00 4.7 13 Oeste 15 Oeste 0 -- -- 87
2018-05-14 06:00:00 5.6 10 Oeste 17 Oeste 0 -- -- 81
2018-05-14 05:00:00 5.7 10 Oeste 15 Noroeste 0 -- -- 80
2018-05-14 04:00:00 5.8 11 Oeste 15 Oeste 0 -- -- 77
2018-05-14 03:00:00 5.9 12 Oeste 14 Oeste 0 -- -- 75
2018-05-14 02:00:00 5.6 7 Oeste 16 Noroeste 0 -- -- 74
2018-05-14 01:00:00 6.4 9 Noroeste 14 Oeste 0 -- -- 70
2018-05-11 20:00:00 -- -- -- -- -- -- -- -- --
2018-05-11 19:00:00 14.2 17 Oeste 66 Oeste 2.4 -- -- 79
2018-05-11 18:00:00 22.2 14 Noroeste 30 Noroeste 0 -- -- 43
2018-05-11 17:00:00 23.5 15 Oeste 38 Oeste 0 -- -- 34
2018-05-11 16:00:00 23.3 19 Oeste 33 Oeste 0 -- -- 34
2018-05-11 15:00:00 23 16 Oeste 35 Oeste 0 -- -- 34
2018-05-11 14:00:00 22.1 20 Oeste 33 Oeste 0 -- -- 39
2018-05-11 13:00:00 21.9 13 Sudoeste 29 Oeste 0 -- -- 41
2018-05-11 12:00:00 20.3 5 Noroeste 12 Sudoeste 0 -- -- 43
2018-05-11 11:00:00 17.6 5 Este 12 Sudeste 0 -- -- 50
2018-05-11 10:00:00 13.5 8 Este 12 Este 0 -- -- 61
2018-05-11 09:00:00 8.9 4 Este 7 Este 0 -- -- 75
2018-05-11 08:00:00 5.1 5 Este 8 Este 0 -- -- 89
2018-05-11 07:00:00 3.6 3 Este 5 Este 0 -- -- 90
2018-05-11 06:00:00 4.1 3 Este 6 Este 0 -- -- 90
2018-05-11 05:00:00 4.7 6 Este 8 Este 0 -- -- 88
2018-05-11 04:00:00 5.1 0 Calma 6 Este 0 -- -- 87
2018-05-11 03:00:00 5.7 4 Este 8 Este 0 -- -- 85
2018-05-11 02:00:00 7.6 0 Calma 10 Este 0 -- -- 77
2018-05-11 01:00:00 8.5 8 Este 12 Este 0 -- -- 73
2018-05-11 00:00:00 9.9 8 Este 18 Este 0 -- -- 67
2018-05-10 23:00:00 11.8 7 Este 13 Este 0 -- -- 61
2018-05-10 22:00:00 13.3 4 Nordeste 17 Este 0 -- -- 56
2018-05-10 21:00:00 17.2 6 Sudeste 20 Sudeste 0 -- -- 44
2018-05-10 20:00:00 21.5 3 Oeste 15 Sudoeste 0 -- -- 30
2018-05-10 19:00:00 21.5 6 Sudoeste 19 Sudoeste 0 -- -- 30
2018-05-10 18:00:00 21 8 Sudoeste 23 Oeste 0 -- -- 31
2018-05-10 17:00:00 20.2 12 Noroeste 23 Oeste 0 -- -- 33
2018-05-10 16:00:00 19.3 10 Noroeste 24 Oeste 0 -- -- 34
2018-05-10 15:00:00 18.9 12 Oeste 21 Oeste 0 -- -- 35
2018-05-10 14:00:00 17.6 9 Norte 15 Norte 0 -- -- 40
2018-05-10 13:00:00 19.1 5 Este 19 Este 0 -- -- 38
2018-05-10 12:00:00 16.4 6 Nordeste 18 Este 0 -- -- 46
2018-05-10 11:00:00 14.7 8 Nordeste 18 Nordeste 0 -- -- 48
2018-05-10 10:00:00 12.9 7 Nordeste 17 Nordeste 0 -- -- 51
2018-05-10 09:00:00 11.2 8 Norte 14 Norte 0 -- -- 59
2018-05-10 08:00:00 10.6 4 Sur 12 Sur 0 -- -- 77
2018-05-10 07:00:00 10.7 4 Sur 10 Sudeste 0 -- -- 78
2018-05-10 06:00:00 10.8 3 Este 8 Este 0 -- -- 79
2018-05-10 05:00:00 11 3 Sudeste 7 Sudeste 0 -- -- 78
2018-05-10 04:00:00 11 5 Sudeste 10 Sudeste 0 -- -- 78
2018-05-10 03:00:00 11.2 7 Sudeste 23 Sudeste 0 -- -- 76
2018-05-10 02:00:00 11.7 12 Sudeste 19 Este 0 -- -- 74
2018-05-10 01:00:00 12.7 7 Sudeste 19 Sudeste 0 -- -- 70
2018-05-10 00:00:00 13.2 8 Este 14 Este 0 -- -- 68
2018-05-09 23:00:00 14.3 7 Nordeste 19 Noroeste 0 -- -- 63
2018-05-09 22:00:00 15.5 12 Norte 22 Noroeste 0 -- -- 58
2018-05-09 21:00:00 16.5 14 Noroeste 24 Noroeste 0 -- -- 51
2018-05-09 20:00:00 18.6 18 Noroeste 33 Oeste 0 -- -- 45
2018-05-09 19:00:00 20.3 21 Noroeste 35 Noroeste 0 -- -- 42
2018-05-09 18:00:00 21 23 Noroeste 39 Noroeste 0 -- -- 40
2018-05-09 17:00:00 21.2 25 Oeste 42 Noroeste 0 -- -- 39
2018-05-09 16:00:00 21.1 22 Noroeste 40 Noroeste 0 -- -- 41
2018-05-09 15:00:00 20.3 28 Oeste 42 Oeste 0 -- -- 36
2018-05-09 14:00:00 19.2 25 Oeste 39 Oeste 0 -- -- 40
2018-05-09 13:00:00 18.9 18 Oeste 35 Oeste 0 -- -- 37
2018-05-09 12:00:00 17.5 10 Oeste 18 Oeste 0 -- -- 49
2018-05-09 11:00:00 15.3 3 Norte 10 Este 0 -- -- 62
2018-05-09 10:00:00 12.5 2 Sudeste 7 Este 0 -- -- 73
2018-05-09 09:00:00 7.8 4 Este 8 Este 0 -- -- 91
2018-05-09 08:00:00 4.8 0 Calma 4 Nordeste 0 -- -- 97
2018-05-09 07:00:00 3.2 0 Calma 4 Nordeste 0 -- -- 97
2018-05-09 06:00:00 3.6 3 Este 9 Nordeste 0 -- -- 96
2018-05-09 05:00:00 4.3 3 Este 7 Este 0 -- -- 95
2018-05-09 04:00:00 5.5 6 Nordeste 9 Nordeste 0 -- -- 94
2018-05-09 03:00:00 6.3 0 Calma 8 Sudeste 0 -- -- 92
2018-05-09 02:00:00 7.5 3 Este 6 Sudeste 0 -- -- 89
2018-05-09 01:00:00 10.2 0 Calma 8 Sudeste 0 -- -- 78
2018-05-09 00:00:00 11.4 2 Sudeste 7 Sudeste 0 -- -- 74
2018-05-08 23:00:00 12.6 7 Sudeste 12 Sudeste 0 -- -- 71
2018-05-08 22:00:00 14.4 8 Nordeste 14 Nordeste 0 -- -- 65
2018-05-08 21:00:00 17.8 8 Nordeste 27 Este 0 -- -- 52
2018-05-08 20:00:00 20 25 Este 33 Este 0 -- -- 50
2018-05-08 19:00:00 22.5 12 Norte 21 Este 0 -- -- 41
2018-05-08 18:00:00 23 8 Norte 15 Norte 0 -- -- 38
2018-05-08 17:00:00 22.3 7 Noroeste 22 Norte 0 -- -- 38
2018-05-08 16:00:00 16.5 19 Noroeste 29 Noroeste 0 -- -- 61
2018-05-08 15:00:00 17.2 14 Norte 23 Norte 0 -- -- 65
2018-05-08 14:00:00 20.8 4 Sudeste 19 Noroeste 0 -- -- 51
2018-05-08 13:00:00 20.7 8 Oeste 19 Oeste 0 -- -- 56
2018-05-08 12:00:00 18.5 10 Noroeste 22 Oeste 0 -- -- 64
2018-05-08 11:00:00 16.3 12 Oeste 21 Oeste 0 -- -- 73
2018-05-08 10:00:00 14.4 15 Oeste 22 Oeste 0 -- -- 81
2018-05-08 09:00:00 11 0 Calma 6 Este 0 -- -- 94
2018-05-08 08:00:00 7.8 0 Calma 3 Este 0 -- -- 96
2018-05-08 07:00:00 7.3 0 Calma 3 Sudeste 0 -- -- 97
2018-05-08 06:00:00 8.2 0 Calma 4 Sudeste 0 -- -- 96
2018-05-08 05:00:00 8.4 0 Calma 4 Sudeste 0 -- -- 95
2018-05-08 04:00:00 8.8 0 Calma 8 Sudeste 0 -- -- 94
2018-05-08 03:00:00 9.8 0 Calma 6 Este 0 -- -- 92
2018-05-08 02:00:00 10.6 0 Calma 6 Nordeste 0 -- -- 91
2018-05-08 01:00:00 12.3 4 Sudeste 8 Este 0 -- -- 86
2018-05-08 00:00:00 13.6 2 Sudeste 13 Nordeste 0.2 -- -- 82
2018-05-07 23:00:00 14.5 7 Nordeste 13 Este 0 -- -- 79
2018-05-07 22:00:00 14.9 4 Este 11 Nordeste 0 -- -- 77
2018-05-07 21:00:00 16.9 6 Norte 16 Norte 0 -- -- 68
2018-05-07 20:00:00 18.1 4 Noroeste 22 Este 0.2 -- -- 63
2018-05-07 19:00:00 20.3 9 Este 19 Este 0 -- -- 48
2018-05-07 18:00:00 19.1 13 Noroeste 22 Norte 0 -- -- 50
2018-05-07 17:00:00 17 16 Norte 40 Norte 0 -- -- 58
2018-05-07 16:00:00 21.7 10 Sudeste 21 Sudeste 0 -- -- 42
2018-05-07 15:00:00 22.9 3 Oeste 19 Sudeste 0 -- -- 39
2018-05-07 14:00:00 22.5 8 Norte 20 Sur 0 -- -- 40
2018-05-07 13:00:00 21.9 6 Nordeste 15 Nordeste 0 -- -- 40
2018-05-07 12:00:00 20.7 4 Este 14 Sudeste 0 -- -- 46
2018-05-07 11:00:00 18.1 5 Este 9 Este 0 -- -- 56
2018-05-07 10:00:00 15.2 3 Este 6 Este 0 -- -- 65
2018-05-07 09:00:00 11.5 0 Calma 5 Sur 0 -- -- 76
2018-05-07 08:00:00 10.1 2 Este 5 Este 0 -- -- 84
2018-05-07 07:00:00 9.8 4 Sudeste 6 Sudeste 0 -- -- 81
2018-05-07 06:00:00 9.7 0 Calma 8 Nordeste 0 -- -- 82
2018-05-07 05:00:00 9.4 0 Calma 5 Este 0 -- -- 81
2018-05-07 04:00:00 8.9 4 Este 8 Este 0 -- -- 82
2018-05-07 03:00:00 9.5 3 Nordeste 12 Nordeste 0 -- -- 78
2018-05-07 02:00:00 9.9 5 Nordeste 9 Nordeste 0 -- -- 77
2018-05-07 01:00:00 11.2 7 Este 12 Este 0 -- -- 73
2018-05-07 00:00:00 12.4 5 Nordeste 9 Este 0 -- -- 69
2018-05-06 23:00:00 13.2 4 Nordeste 11 Este 0 -- -- 68
2018-05-06 22:00:00 15.2 6 Nordeste 7 Nordeste 0 -- -- 58
2018-05-06 21:00:00 17.5 6 Nordeste 25 Nordeste 0 -- -- 50
2018-05-06 20:00:00 21 15 Este 26 Sudeste 0 -- -- 38
2018-05-06 19:00:00 22.3 13 Sudeste 28 Este 0 -- -- 35
2018-05-06 18:00:00 23.6 13 Este 25 Este 0 -- -- 31
2018-05-06 17:00:00 23.4 9 Sudeste 29 Este 0 -- -- 32
2018-05-06 16:00:00 21.4 16 Este 29 Este 0 -- -- 36
2018-05-06 15:00:00 20.3 12 Este 26 Este 0 -- -- 42
2018-05-06 14:00:00 19.8 18 Este 31 Este 0 -- -- 44
2018-05-06 13:00:00 19.6 14 Sudeste 29 Este 0 -- -- 46
2018-05-06 12:00:00 18.8 14 Sudeste 25 Este 0 -- -- 50
2018-05-06 11:00:00 16.8 17 Este 24 Este 0 -- -- 58
2018-05-06 10:00:00 14.8 15 Este 24 Este 0 -- -- 67
2018-05-06 09:00:00 12.4 18 Este 26 Este 0 -- -- 77
2018-05-06 08:00:00 10.2 11 Este 20 Este 0 -- -- 84
2018-05-06 07:00:00 9.1 8 Nordeste 13 Este 0 -- -- 87
2018-05-06 06:00:00 8.8 3 Nordeste 14 Este 0 -- -- 88
2018-05-06 05:00:00 10.6 8 Este 13 Este 0 -- -- 82
2018-05-06 04:00:00 10.9 3 Nordeste 14 Este 0 -- -- 79
2018-05-06 03:00:00 10.8 8 Este 14 Este 0 -- -- 78
2018-05-06 02:00:00 11.9 9 Este 18 Este 0 -- -- 73
2018-05-06 01:00:00 11.9 13 Este 18 Este 0 -- -- 71
2018-05-06 00:00:00 12.6 13 Este 26 Este 0 -- -- 67
2018-05-05 23:00:00 13.5 18 Este 31 Este 0 -- -- 63
2018-05-05 22:00:00 15.2 19 Este 30 Este 0 -- -- 58
2018-05-05 21:00:00 18.1 13 Este 21 Sudeste 0 -- -- 48
2018-05-05 20:00:00 19.4 11 Este 17 Sudeste 0 -- -- 44
2018-05-05 19:00:00 20.4 11 Este 17 Este 0 -- -- 40
2018-05-05 18:00:00 21.4 9 Este 20 Este 0 -- -- 40
2018-05-05 17:00:00 20.1 12 Sudeste 26 Este 0 -- -- 42
2018-05-05 16:00:00 20.5 12 Este 24 Nordeste 0 -- -- 41
2018-05-05 15:00:00 19.9 5 Sur 17 Oeste 0 -- -- 41
2018-05-05 14:00:00 19.1 7 Sur 16 Sur 0 -- -- 42
2018-05-05 13:00:00 18.1 4 Norte 18 Este 0 -- -- 46
2018-05-05 12:00:00 16.3 3 Sudoeste 12 Este 0 -- -- 48
2018-05-05 11:00:00 13.1 3 Sur 8 Sudoeste 0 -- -- 59
2018-05-05 10:00:00 9.8 4 Sur 8 Sur 0 -- -- 70
2018-05-05 09:00:00 5.2 2 Este 7 Este 0 -- -- 87
2018-05-05 08:00:00 1.4 4 Este 6 Este 0 -- -- 94
2018-05-05 07:00:00 0.5 3 Este 5 Este 0 -- -- 94
2018-05-05 06:00:00 0.9 0 Calma 4 Este 0 -- -- 94
2018-05-05 05:00:00 1.4 2 Este 4 Este 0 -- -- 93
2018-05-05 04:00:00 2.1 2 Este 4 Sudeste 0 -- -- 92
2018-05-05 03:00:00 2.5 3 Sudeste 5 Sudeste 0 -- -- 91
2018-05-05 02:00:00 3.7 0 Calma 4 Nordeste 0 -- -- 87
2018-05-05 01:00:00 6 4 Este 8 Este 0 -- -- 80
2018-05-05 00:00:00 6.5 0 Calma 9 Este 0 -- -- 77
2018-05-04 23:00:00 7.8 6 Nordeste 11 Nordeste 0 -- -- 72
2018-05-04 22:00:00 9 6 Este 18 Este 0 -- -- 67
2018-05-04 21:00:00 12.1 10 Nordeste 24 Este 0 -- -- 55
2018-05-04 20:00:00 14.8 17 Nordeste 28 Este 0 -- -- 47
2018-05-04 19:00:00 16.1 20 Nordeste 27 Nordeste 0 -- -- 44
2018-05-04 18:00:00 15.8 15 Nordeste 26 Este 0 -- -- 45
2018-05-04 17:00:00 17.7 14 Noroeste 30 Noroeste 0 -- -- 40
2018-05-04 16:00:00 18 8 Este 29 Nordeste 0 -- -- 36
2018-05-04 15:00:00 16.9 7 Nordeste 23 Nordeste 0 -- -- 38
2018-05-04 14:00:00 15 11 Norte 33 Este 0 -- -- 41
2018-05-04 13:00:00 14.5 18 Este 33 Este 0 -- -- 43
2018-05-04 12:00:00 12.1 4 Oeste 21 Sudoeste 0 -- -- 47
2018-05-04 11:00:00 9.4 13 Sudoeste 21 Sudoeste 0 -- -- 53
2018-05-04 10:00:00 7.3 11 Sudoeste 18 Sudoeste 0 -- -- 61
2018-05-04 09:00:00 4.4 7 Oeste 12 Sudoeste 0 -- -- 78
2018-05-04 08:00:00 2 0 Calma 9 Noroeste 0 -- -- 86
2018-05-04 07:00:00 0.3 11 Oeste 15 Oeste 0 -- -- 90
2018-05-04 06:00:00 0.8 4 Sudoeste 13 Sudoeste 0 -- -- 86
2018-05-04 05:00:00 1.7 9 Noroeste 15 Oeste 0 -- -- 82
2018-05-04 04:00:00 1.2 7 Oeste 14 Sudoeste 0 -- -- 85
2018-05-04 03:00:00 1.5 2 Oeste 8 Sudoeste 0 -- -- 81
2018-05-04 02:00:00 2.3 4 Oeste 11 Oeste 0 -- -- 78
2018-05-04 01:00:00 3.1 4 Sudoeste 10 Oeste 0 -- -- 72
2018-05-04 00:00:00 3.7 7 Noroeste 10 Noroeste 0 -- -- 72
2018-05-03 23:00:00 4.9 3 Oeste 16 Norte 0 -- -- 65
2018-05-03 22:00:00 6.6 13 Norte 27 Norte 0 -- -- 61
2018-05-03 21:00:00 8.7 18 Norte 27 Norte 0 -- -- 53
2018-05-03 20:00:00 11.9 15 Norte 27 Noroeste 0 -- -- 44
2018-05-03 19:00:00 13.5 21 Noroeste 33 Noroeste 0 -- -- 37
2018-05-03 18:00:00 15.2 13 Norte 34 Este 0 -- -- 34
2018-05-03 17:00:00 15 21 Este 37 Este 0 -- -- 37
2018-05-03 16:00:00 15.5 15 Este 43 Oeste 0 -- -- 36
2018-05-03 15:00:00 14.3 19 Noroeste 38 Noroeste 0 -- -- 37
2018-05-03 14:00:00 13.1 22 Noroeste 33 Noroeste 0 -- -- 37
2018-05-03 13:00:00 12.8 15 Noroeste 31 Noroeste 0 -- -- 42
2018-05-03 12:00:00 11.2 20 Noroeste 42 Noroeste 0 -- -- 48
2018-05-03 11:00:00 10.1 31 Noroeste 43 Noroeste 0 -- -- 47
2018-05-03 10:00:00 10.1 18 Noroeste 31 Norte 0 -- -- 55
2018-05-03 09:00:00 9.5 15 Noroeste 26 Noroeste 0 -- -- 57
2018-05-03 08:00:00 8.5 12 Noroeste 24 Noroeste 0 -- -- 68
2018-05-03 07:00:00 8.2 17 Oeste 22 Oeste 0 -- -- 83
2018-05-03 06:00:00 8.4 12 Oeste 19 Oeste 0 -- -- 81
2018-05-03 05:00:00 8.2 13 Oeste 18 Oeste 0 -- -- 90
2018-05-03 04:00:00 8.2 15 Oeste 18 Oeste 0 -- -- 91
2018-05-03 03:00:00 8.5 14 Oeste 18 Oeste 0 -- -- 90
2018-05-03 02:00:00 8.1 14 Oeste 17 Oeste 0 -- -- 90
2018-05-03 01:00:00 8.9 6 Noroeste 14 Oeste 0 -- -- 87
2018-05-03 00:00:00 9.3 14 Oeste 19 Oeste 0 -- -- 84
2018-05-02 23:00:00 9.8 9 Oeste 14 Oeste 0 -- -- 76
2018-05-02 22:00:00 10.5 10 Noroeste 25 Noroeste 0 -- -- 70
2018-05-02 21:00:00 11.5 20 Oeste 32 Noroeste 0 -- -- 64
2018-05-02 20:00:00 12.3 23 Oeste 38 Oeste 0 -- -- 59
2018-05-02 19:00:00 13.4 24 Oeste 33 Oeste 0 -- -- 49
2018-05-02 18:00:00 13.8 23 Noroeste 37 Oeste 0 -- -- 46
2018-05-02 17:00:00 14.5 24 Noroeste 36 Oeste 0 -- -- 39
2018-05-02 16:00:00 14.6 24 Oeste 37 Oeste 0 -- -- 34
2018-05-02 15:00:00 13.4 26 Noroeste 40 Noroeste 0 -- -- 34
2018-05-02 14:00:00 13.2 22 Oeste 45 Oeste 0 -- -- 30
2018-05-02 13:00:00 11.8 27 Oeste 44 Oeste 0 -- -- 36
2018-05-02 12:00:00 10.9 30 Oeste 40 Oeste 0 -- -- 43
2018-05-02 11:00:00 9.1 15 Oeste 29 Oeste 0 -- -- 52
2018-05-02 10:00:00 6.9 21 Oeste 28 Oeste 0 -- -- 68
2018-05-02 09:00:00 5.6 13 Oeste 19 Oeste 0 -- -- 75
2018-05-02 08:00:00 3.1 8 Oeste 10 Sudoeste 0 -- -- 87
2018-05-02 07:00:00 0.6 0 Calma 4 Sudeste 0 -- -- 90
2018-05-02 06:00:00 0.1 0 Calma 4 Este 0 -- -- 90
2018-05-02 05:00:00 -0.6 2 Este 5 Este 0 -- -- 91
2018-05-02 04:00:00 -0.5 0 Calma 3 Sudeste 0 -- -- 91
2018-05-02 03:00:00 0.6 0 Calma 3 Sudeste 0 -- -- 84
2018-05-02 02:00:00 1.4 0 Calma 6 Sudoeste 0 -- -- 82
2018-05-02 01:00:00 2.9 0 Calma 8 Sudoeste 0 -- -- 76
2018-05-02 00:00:00 4 2 Noroeste 13 Oeste 0 -- -- 68
2018-05-01 23:00:00 6.2 6 Noroeste 12 Oeste 0 -- -- 56
2018-05-01 22:00:00 7 10 Noroeste 16 Oeste 0 -- -- 52
2018-05-01 21:00:00 9.3 13 Oeste 30 Oeste 0 -- -- 44
2018-05-01 20:00:00 11.4 21 Oeste 36 Oeste 0 -- -- 36
2018-05-01 19:00:00 12.1 20 Noroeste 35 Oeste 0 -- -- 37
2018-05-01 18:00:00 12.9 20 Oeste 32 Oeste 0 -- -- 35
2018-05-01 17:00:00 12.5 20 Oeste 32 Noroeste 0 -- -- 34
2018-05-01 16:00:00 12 12 Oeste 27 Oeste 0 -- -- 37
2018-05-01 15:00:00 11.4 8 Sur 26 Oeste 0 -- -- 41
2018-05-01 14:00:00 10.3 9 Sudoeste 22 Sudoeste 0 -- -- 43
2018-05-01 13:00:00 10.2 5 Noroeste 22 Oeste 0 -- -- 46
2018-05-01 12:00:00 8.7 3 Oeste 14 Sur 0 -- -- 51
2018-05-01 11:00:00 7.5 4 Norte 13 Noroeste 0 -- -- 58
2018-05-01 10:00:00 4.6 2 Noroeste 8 Noroeste 0 -- -- 80
2018-05-01 09:00:00 1.8 5 Sudoeste 12 Oeste 0.2 -- -- 94
2018-05-01 08:00:00 -1.5 0 Calma 12 Oeste 0 -- -- 96
2018-05-01 07:00:00 -1.2 8 Oeste 11 Oeste 0 -- -- 96
2018-05-01 06:00:00 -0.9 4 Oeste 15 Oeste 0 -- -- 95
2018-05-01 05:00:00 -0.9 8 Oeste 11 Oeste 0 -- -- 96
2018-05-01 04:00:00 -0.1 9 Oeste 13 Oeste 0 -- -- 94
2018-05-01 03:00:00 0.2 9 Oeste 13 Oeste 0 -- -- 95
2018-05-01 02:00:00 0.4 2 Noroeste 6 Noroeste 0 -- -- 95
2018-05-01 01:00:00 1.5 0 Calma 14 Oeste 0 -- -- 92
2018-05-01 00:00:00 2.5 7 Oeste 14 Oeste 0 -- -- 92
2018-04-30 23:00:00 3.4 9 Oeste 13 Oeste 0.2 -- -- 89
2018-04-30 22:00:00 4.3 3 Noroeste 10 Oeste 0 -- -- 86
2018-04-30 21:00:00 4.8 9 Oeste 19 Noroeste 0 -- -- 79
2018-04-30 20:00:00 5.7 11 Noroeste 24 Noroeste 0 -- -- 75
2018-04-30 19:00:00 5.6 16 Noroeste 35 Noroeste 0 -- -- 77
2018-04-30 18:00:00 4.9 29 Noroeste 44 Oeste 0 -- -- 78
2018-04-30 17:00:00 6.2 20 Oeste 29 Oeste 0 -- -- 73
2018-04-30 16:00:00 3.1 34 Oeste 48 Oeste 0.4 -- -- 84
2018-04-30 15:00:00 8.2 15 Noroeste 29 Noroeste 0 -- -- 55
2018-04-30 14:00:00 8.2 16 Oeste 30 Oeste 0 -- -- 55
2018-04-30 13:00:00 6 19 Sudoeste 36 Oeste 0 -- -- 63
2018-04-30 12:00:00 4.8 18 Oeste 41 Oeste 0 -- -- 76
2018-04-30 11:00:00 3.7 21 Oeste 32 Oeste 0 -- -- 75
2018-04-30 10:00:00 4 15 Oeste 29 Oeste 0 -- -- 80
2018-04-30 09:00:00 3.2 17 Oeste 23 Oeste 0 -- -- 85
2018-04-30 08:00:00 2.5 8 Oeste 14 Oeste 0 -- -- 88
2018-04-30 07:00:00 2.1 9 Oeste 21 Oeste 0 -- -- 87
2018-04-30 06:00:00 2 18 Oeste 25 Noroeste 0 -- -- 86
2018-04-30 05:00:00 1.3 19 Oeste 26 Oeste 0 -- -- 89
2018-04-30 04:00:00 1.8 15 Oeste 21 Oeste 0 -- -- 87
2018-04-30 03:00:00 2.5 12 Oeste 20 Sudoeste 0 -- -- 86
2018-04-30 02:00:00 2.6 13 Oeste 31 Oeste 0 -- -- 85
2018-04-30 01:00:00 3.1 21 Oeste 36 Oeste 0 -- -- 83
2018-04-30 00:00:00 3.7 27 Oeste 37 Oeste 0 -- -- 82
2018-04-29 23:00:00 4.1 23 Oeste 33 Sudoeste 0 -- -- 83
2018-04-29 22:00:00 4.8 22 Oeste 33 Oeste 0 -- -- 79
2018-04-29 21:00:00 5.5 18 Oeste 49 Oeste 0 -- -- 75
2018-04-29 20:00:00 7.2 30 Oeste 54 Sudoeste 0 -- -- 68
2018-04-29 19:00:00 6.2 21 Oeste 60 Oeste 0.4 -- -- 74
2018-04-29 18:00:00 9.3 39 Oeste 53 Oeste 0 -- -- 65
2018-04-29 17:00:00 6.6 23 Oeste 43 Oeste 1.6 -- -- 81
2018-04-29 16:00:00 6.7 30 Oeste 57 Oeste 0.4 -- -- 82
2018-04-29 15:00:00 8.6 31 Sudoeste 46 Sudoeste 0 -- -- 71
2018-04-29 14:00:00 6.2 31 Oeste 46 Sudoeste 0 -- -- 80
2018-04-29 13:00:00 4.5 29 Oeste 43 Sudoeste 0 -- -- 89
2018-04-29 12:00:00 4.3 31 Oeste 42 Oeste 1 -- -- 90
2018-04-29 11:00:00 5.4 17 Oeste 29 Oeste 0.2 -- -- 88
2018-04-29 10:00:00 5.6 11 Oeste 15 Oeste 0 -- -- 86
2018-04-29 09:00:00 4.9 8 Sudoeste 13 Oeste 0.2 -- -- 88
2018-04-29 08:00:00 4.3 8 Sudoeste 14 Sudoeste 0 -- -- 92
2018-04-29 07:00:00 4 6 Sudoeste 16 Oeste 0 -- -- 92
2018-04-29 06:00:00 3.7 14 Oeste 33 Oeste 0.4 -- -- 91
2018-04-29 05:00:00 5.4 21 Oeste 36 Oeste 0.2 -- -- 80
2018-04-29 04:00:00 6.1 3 Oeste 9 Oeste 0 -- -- 71
2018-04-29 03:00:00 6.3 7 Oeste 13 Oeste 0 -- -- 68
2018-04-29 02:00:00 6.6 9 Sudoeste 12 Sudoeste 0 -- -- 66
2018-04-29 01:00:00 5.2 9 Sudoeste 10 Sudoeste 0 -- -- 71
2018-04-29 00:00:00 6.9 5 Sudoeste 11 Sudoeste 0 -- -- 63
2018-04-28 23:00:00 8.1 8 Oeste 19 Oeste 0 -- -- 55
2018-04-28 22:00:00 9.7 14 Oeste 19 Oeste 0 -- -- 54
2018-04-28 21:00:00 11.1 14 Oeste 35 Oeste 0 -- -- 52
2018-04-28 20:00:00 13.7 22 Oeste 36 Oeste 0 -- -- 47
2018-04-28 19:00:00 14.7 19 Sudoeste 37 Sudoeste 0 -- -- 34
2018-04-28 18:00:00 15.3 22 Sudoeste 39 Sudoeste 0 -- -- 35
2018-04-28 17:00:00 16.6 24 Sudoeste 42 Sur 0 -- -- 33
2018-04-28 16:00:00 15.9 26 Sur 40 Sur 0 -- -- 31
2018-04-28 15:00:00 17.1 26 Sur 46 Sur 0 -- -- 33
2018-04-28 14:00:00 16.9 25 Sur 45 Sur 0 -- -- 36
2018-04-28 13:00:00 16.5 22 Sur 37 Sudeste 0 -- -- 42
2018-04-28 12:00:00 15.1 6 Sur 20 Oeste 0 -- -- 54
2018-04-28 11:00:00 12.1 15 Oeste 26 Oeste 0 -- -- 66
2018-04-28 10:00:00 13.6 9 Sur 15 Este 0 -- -- 64
2018-04-28 09:00:00 9.4 8 Este 12 Este 0 -- -- 84
2018-04-28 08:00:00 6.5 4 Este 8 Este 0 -- -- 94
2018-04-28 07:00:00 6.4 4 Este 6 Este 0 -- -- 93
2018-04-28 06:00:00 7.6 5 Este 10 Este 0 -- -- 92
2018-04-28 05:00:00 7.7 2 Nordeste 5 Este 0 -- -- 89
2018-04-28 04:00:00 8.7 3 Norte 8 Nordeste 0 -- -- 84
2018-04-28 03:00:00 10.2 5 Oeste 9 Oeste 0 -- -- 78
2018-04-28 02:00:00 10 3 Este 4 Este 0 -- -- 76
2018-04-28 01:00:00 10.7 2 Este 9 Nordeste 0 -- -- 74
2018-04-28 00:00:00 11.8 0 Calma 10 Noroeste 0 -- -- 65
2018-04-27 23:00:00 13.2 8 Noroeste 15 Oeste 0 -- -- 60
2018-04-27 22:00:00 13.9 10 Noroeste 14 Noroeste 0 -- -- 56
2018-04-27 21:00:00 15.5 11 Noroeste 23 Oeste 0 -- -- 50
2018-04-27 20:00:00 18.6 15 Oeste 32 Oeste 0 -- -- 39
2018-04-27 19:00:00 19 22 Oeste 35 Oeste 0 -- -- 37
2018-04-27 18:00:00 19.8 16 Noroeste 34 Oeste 0 -- -- 38
2018-04-27 17:00:00 19.1 20 Noroeste 38 Oeste 0 -- -- 39
2018-04-27 16:00:00 18.5 22 Oeste 35 Oeste 0 -- -- 43
2018-04-27 15:00:00 18.9 19 Noroeste 35 Oeste 0 -- -- 42
2018-04-27 14:00:00 17.9 23 Oeste 36 Oeste 0 -- -- 48
2018-04-27 13:00:00 17.1 15 Oeste 30 Oeste 0 -- -- 51
2018-04-27 12:00:00 16.1 20 Oeste 30 Oeste 0 -- -- 62
2018-04-27 11:00:00 14.2 24 Oeste 32 Oeste 0 -- -- 70
2018-04-27 10:00:00 14 22 Oeste 29 Oeste 0 -- -- 77
2018-04-27 09:00:00 13.2 12 Oeste 24 Oeste 0 -- -- 82
2018-04-27 08:00:00 12.2 11 Oeste 17 Oeste 0 -- -- 87
2018-04-27 07:00:00 7.6 3 Sudeste 6 Sudeste 0 -- -- 92
2018-04-27 06:00:00 8.9 5 Sudoeste 14 Sudoeste 0 -- -- 85
2018-04-27 05:00:00 8.5 0 Calma 4 Sudeste 0 -- -- 91
2018-04-27 04:00:00 9.1 0 Calma 5 Norte 0 -- -- 90
2018-04-27 03:00:00 10 2 Este 4 Sudeste 0 -- -- 88
2018-04-27 02:00:00 10.5 3 Este 6 Sudeste 0 -- -- 86
2018-04-27 01:00:00 11.8 2 Este 4 Noroeste 0 -- -- 82
2018-04-27 00:00:00 13.5 3 Oeste 9 Sudoeste 0 -- -- 75
2018-04-26 23:00:00 15.4 5 Sudoeste 19 Noroeste 0 -- -- 64
2018-04-26 22:00:00 16.9 13 Noroeste 18 Noroeste 0 -- -- 59
2018-04-26 21:00:00 18.1 10 Noroeste 28 Oeste 0 -- -- 57
2018-04-26 20:00:00 21.2 22 Noroeste 29 Noroeste 0 -- -- 46
2018-04-26 19:00:00 22.9 22 Oeste 32 Oeste 0 -- -- 42
2018-04-26 18:00:00 23.6 16 Oeste 29 Oeste 0 -- -- 40
2018-04-26 17:00:00 23.5 14 Oeste 27 Oeste 0 -- -- 42
2018-04-26 16:00:00 22.8 13 Oeste 22 Oeste 0 -- -- 42
2018-04-26 15:00:00 22 11 Oeste 18 Oeste 0 -- -- 40
2018-04-26 14:00:00 23.4 4 Oeste 11 Sudoeste 0 -- -- 39
2018-04-26 13:00:00 20.5 4 Sudeste 19 Sudeste 0 -- -- 43
2018-04-26 12:00:00 17.4 10 Este 18 Este 0 -- -- 54
2018-04-26 11:00:00 14.4 14 Este 22 Este 0 -- -- 64
2018-04-26 10:00:00 12.1 15 Este 21 Este 0 -- -- 69
2018-04-26 09:00:00 8.8 8 Este 12 Este 0 -- -- 84
2018-04-26 08:00:00 6.6 7 Este 11 Este 0 -- -- 93
2018-04-26 07:00:00 6.2 5 Este 8 Este 0 -- -- 92
2018-04-26 06:00:00 6.6 5 Este 9 Este 0 -- -- 90
2018-04-26 05:00:00 7.8 8 Este 15 Este 0 -- -- 89
2018-04-26 04:00:00 8.5 10 Este 18 Este 0 -- -- 88
2018-04-26 03:00:00 9.6 9 Este 22 Sudeste 0 -- -- 85
2018-04-26 02:00:00 11 12 Sudeste 20 Este 0 -- -- 75
2018-04-26 01:00:00 11.7 9 Nordeste 22 Este 0 -- -- 73
2018-04-26 00:00:00 13.3 18 Este 23 Este 0 -- -- 68
2018-04-25 23:00:00 15 14 Este 32 Este 0 -- -- 64
2018-04-25 22:00:00 17.2 7 Sudeste 22 Este 0 -- -- 65
2018-04-25 21:00:00 19.5 14 Este 23 Este 0 -- -- 54
2018-04-25 20:00:00 22.7 5 Este 19 Noroeste 0 -- -- 40
2018-04-25 19:00:00 21.5 12 Noroeste 26 Este 0 -- -- 42
2018-04-25 18:00:00 24.3 16 Sudeste 27 Sudeste 0 -- -- 30
2018-04-25 17:00:00 25.2 12 Este 21 Este 0 -- -- 29
2018-04-25 16:00:00 26.6 7 Sudoeste 21 Sudeste 0 -- -- 28
2018-04-25 15:00:00 26.1 8 Nordeste 21 Sudeste 0 -- -- 30
2018-04-25 14:00:00 24.9 6 Sudeste 23 Este 0 -- -- 32
2018-04-25 13:00:00 23.7 9 Sudeste 21 Este 0 -- -- 35
2018-04-25 12:00:00 22.7 11 Este 19 Este 0 -- -- 38
2018-04-25 11:00:00 19.7 7 Este 16 Este 0 -- -- 51
2018-04-25 10:00:00 15.3 3 Este 6 Nordeste 0 -- -- 67
2018-04-25 09:00:00 9.9 4 Este 10 Nordeste 0 -- -- 89
2018-04-25 08:00:00 6.4 5 Este 7 Este 0 -- -- 94
2018-04-25 07:00:00 7 3 Nordeste 6 Sudeste 0 -- -- 94
2018-04-25 06:00:00 7 0 Calma 7 Este 0 -- -- 93
2018-04-25 05:00:00 7.7 3 Este 6 Este 0 -- -- 91
2018-04-25 04:00:00 8.5 2 Nordeste 5 Este 0 -- -- 89
2018-04-25 03:00:00 9.3 2 Nordeste 8 Nordeste 0 -- -- 87
2018-04-25 02:00:00 10.3 3 Nordeste 6 Nordeste 0 -- -- 83
2018-04-25 01:00:00 11.7 2 Este 7 Nordeste 0 -- -- 75
2018-04-25 00:00:00 12.9 3 Este 5 Este 0 -- -- 69
2018-04-24 23:00:00 15.2 0 Calma 7 Nordeste 0 -- -- 57
2018-04-24 22:00:00 16.4 4 Nordeste 12 Sudeste 0 -- -- 52
2018-04-24 21:00:00 19 7 Sur 23 Sur 0 -- -- 44
2018-04-24 20:00:00 22.8 13 Sudeste 27 Este 0 -- -- 33
2018-04-24 19:00:00 25 17 Este 26 Este 0 -- -- 28
2018-04-24 18:00:00 26 14 Este 23 Este 0 -- -- 27
2018-04-24 17:00:00 26.1 12 Este 25 Este 0 -- -- 26
2018-04-24 16:00:00 25.3 13 Este 26 Este 0 -- -- 27
2018-04-24 15:00:00 23.7 17 Este 30 Este 0 -- -- 31
2018-04-24 14:00:00 22.9 14 Este 31 Sudeste 0 -- -- 34
2018-04-24 13:00:00 21.7 16 Sudeste 31 Este 0 -- -- 41
2018-04-24 12:00:00 19.7 18 Este 26 Sudeste 0 -- -- 47
2018-04-24 11:00:00 17.9 15 Este 27 Este 0 -- -- 53
2018-04-24 10:00:00 15.1 13 Este 22 Este 0 -- -- 63
2018-04-24 09:00:00 11.5 6 Este 15 Este 0 -- -- 81
2018-04-24 08:00:00 9.3 9 Este 13 Este 0 -- -- 89
2018-04-24 07:00:00 8.4 6 Este 13 Este 0 -- -- 89
2018-04-24 06:00:00 9.4 9 Este 15 Este 0 -- -- 88
2018-04-24 05:00:00 9.9 5 Sudeste 10 Nordeste 0 -- -- 87
2018-04-24 04:00:00 10.9 6 Nordeste 10 Nordeste 0 -- -- 83
2018-04-24 03:00:00 11.1 8 Este 17 Nordeste 0 -- -- 83
2018-04-24 02:00:00 10.7 7 Este 11 Este 0 -- -- 86
2018-04-24 01:00:00 11.1 6 Este 10 Este 0 -- -- 84
2018-04-24 00:00:00 11.9 8 Este 18 Este 0 -- -- 80
2018-04-23 23:00:00 13.2 8 Este 14 Este 0 -- -- 74
2018-04-23 22:00:00 14.5 8 Este 18 Este 0 -- -- 71
2018-04-23 21:00:00 16.5 13 Este 31 Este 0 -- -- 63
2018-04-23 20:00:00 19.4 21 Este 31 Este 0 -- -- 52
2018-04-23 19:00:00 22 19 Este 27 Este 0 -- -- 42
2018-04-23 18:00:00 22.4 16 Sudeste 31 Sudeste 0 -- -- 39
2018-04-23 17:00:00 22.9 16 Sudeste 30 Sudeste 0 -- -- 40
2018-04-23 16:00:00 24.6 6 Este 19 Sur 0 -- -- 33
2018-04-23 15:00:00 23.1 6 Sur 16 Sudoeste 0 -- -- 37
2018-04-23 14:00:00 22.3 5 Sur 12 Oeste 0 -- -- 38
2018-04-23 13:00:00 22.2 8 Este 14 Nordeste 0 -- -- 41
2018-04-23 12:00:00 18.9 8 Nordeste 15 Este 0 -- -- 50
2018-04-23 11:00:00 16.9 10 Este 14 Este 0 -- -- 52
2018-04-23 10:00:00 13.2 8 Este 13 Este 0 -- -- 63
2018-04-23 09:00:00 10.9 3 Este 10 Este 0 -- -- 76
2018-04-23 08:00:00 9.4 7 Este 13 Este 0 -- -- 81
2018-04-23 07:00:00 9.5 8 Este 17 Este 0 -- -- 82
2018-04-23 06:00:00 9.5 8 Este 15 Este 0 -- -- 82
2018-04-23 05:00:00 8.5 4 Este 8 Nordeste 0 -- -- 89
2018-04-23 04:00:00 9.1 4 Este 12 Este 0 -- -- 86
2018-04-23 03:00:00 10.3 5 Este 17 Este 0 -- -- 82
2018-04-23 02:00:00 11.4 13 Este 17 Este 0 -- -- 80
2018-04-23 01:00:00 12.6 7 Este 16 Sudeste 0 -- -- 74
2018-04-23 00:00:00 13.3 9 Este 22 Este 0 -- -- 71
2018-04-22 23:00:00 14.5 8 Este 15 Este 0 -- -- 69
2018-04-22 22:00:00 15.1 4 Nordeste 15 Norte 0 -- -- 72
2018-04-22 21:00:00 16 13 Noroeste 26 Noroeste 0 -- -- 68
2018-04-22 20:00:00 18.3 2 Este 23 Este 0 -- -- 58
2018-04-22 19:00:00 19.4 5 Nordeste 10 Oeste 0 -- -- 56
2018-04-22 18:00:00 19.4 2 Oeste 32 Oeste 0 -- -- 54
2018-04-22 17:00:00 19.7 3 Sur 18 Sudeste 0 -- -- 45
2018-04-22 16:00:00 23.4 6 Sudoeste 18 Este 0 -- -- 42
2018-04-22 15:00:00 21.5 4 Oeste 14 Sudeste 0 -- -- 44
2018-04-22 14:00:00 20.1 4 Norte 15 Este 0 -- -- 46
2018-04-22 13:00:00 19.5 4 Noroeste 14 Noroeste 0 -- -- 49
2018-04-22 12:00:00 17.3 7 Noroeste 18 Noroeste 0 -- -- 58
2018-04-22 11:00:00 14 2 Nordeste 7 Nordeste 0 -- -- 68
2018-04-22 10:00:00 11.2 4 Este 5 Este 0 -- -- 79
2018-04-22 09:00:00 7.6 3 Sudeste 5 Sudeste 0 -- -- 93
2018-04-22 08:00:00 5.7 3 Nordeste 4 Nordeste 0 -- -- 95
2018-04-22 07:00:00 6.2 4 Este 9 Nordeste 0 -- -- 94
2018-04-22 06:00:00 7.1 3 Sudeste 7 Nordeste 0 -- -- 93
2018-04-22 05:00:00 7.6 3 Este 5 Sudeste 0 -- -- 90
2018-04-22 04:00:00 8.9 3 Nordeste 14 Nordeste 0 -- -- 87
2018-04-22 03:00:00 9.2 5 Este 8 Este 0 -- -- 87
2018-04-22 02:00:00 8.8 3 Nordeste 8 Este 0 -- -- 87
2018-04-22 01:00:00 9.7 2 Nordeste 9 Este 0 -- -- 82
2018-04-22 00:00:00 11.5 9 Este 14 Este 0 -- -- 74